createdAt,value
2022-08-17T00:00:33.246Z,98032.91
2022-08-17T00:03:13.547Z,98033.91
2022-08-17T00:05:47.967Z,98026.06
2022-08-17T00:08:17.153Z,98029.72
2022-08-17T00:10:45.817Z,98031.56
2022-08-17T00:13:19.626Z,98034.22
2022-08-17T00:15:46.853Z,98035.22
2022-08-17T00:19:01.792Z,98039.03
2022-08-17T00:21:01.798Z,98032.19
2022-08-17T00:23:33.350Z,98032.03
2022-08-17T00:26:01.506Z,98025.88
2022-08-17T00:28:28.159Z,98026.88
2022-08-17T00:31:00.803Z,98026.72
2022-08-17T00:33:30.676Z,98032.19
2022-08-17T00:35:59.096Z,98019.19
2022-08-17T00:38:26.977Z,98017.53
2022-08-17T00:40:58.980Z,98017.53
2022-08-17T00:43:28.667Z,98027.19
2022-08-17T00:45:55.670Z,98025.19
2022-08-17T00:48:30.078Z,98024.34
2022-08-17T00:51:18.758Z,98031.19
2022-08-17T00:53:54.317Z,98025.00
2022-08-17T00:56:32.031Z,98021.53
2022-08-17T00:58:59.382Z,98031.53
2022-08-17T01:01:26.442Z,98029.69
2022-08-17T01:03:57.050Z,98025.81
2022-08-17T01:06:28.402Z,98018.84
2022-08-17T01:08:57.920Z,98020.84
2022-08-17T01:11:25.647Z,98017.16
2022-08-17T01:13:52.500Z,98012.84
2022-08-17T01:16:25.544Z,98013.69
2022-08-17T01:18:55.141Z,98009.50
2022-08-17T01:21:58.917Z,98016.50
2022-08-17T01:24:27.280Z,98020.63
2022-08-17T01:26:53.990Z,98022.63
2022-08-17T01:29:24.599Z,98026.28
2022-08-17T01:31:56.566Z,98014.81
2022-08-17T01:34:24.978Z,98020.63
2022-08-17T01:37:04.770Z,98019.13
2022-08-17T01:40:09.458Z,98027.44
2022-08-17T01:43:00.175Z,98027.78
2022-08-17T01:45:32.157Z,98024.28
2022-08-17T01:47:58.966Z,98029.78
2022-08-17T01:50:31.312Z,98026.44
2022-08-17T01:53:21.316Z,98030.94
2022-08-17T01:55:53.945Z,98026.75
2022-08-17T01:58:21.412Z,98047.34
2022-08-17T02:01:00.947Z,98041.00
2022-08-17T02:03:29.642Z,98039.00
2022-08-17T02:05:57.239Z,98047.00
2022-08-17T02:08:37.268Z,98043.66
2022-08-17T02:11:11.970Z,98047.47
2022-08-17T02:13:39.288Z,98043.00
2022-08-17T02:16:06.888Z,98041.47
2022-08-17T02:18:34.070Z,98040.66
2022-08-17T02:21:00.935Z,98047.13
2022-08-17T02:23:30.356Z,98062.88
2022-08-17T02:25:59.797Z,98101.56
2022-08-17T02:28:28.414Z,98103.22
2022-08-17T02:31:01.746Z,98081.13
2022-08-17T02:33:41.485Z,98094.56
2022-08-17T02:36:11.974Z,98087.63
2022-08-17T02:38:39.961Z,98091.59
2022-08-17T02:41:06.984Z,98097.03
2022-08-17T02:43:33.850Z,98103.84
2022-08-17T02:46:00.658Z,98107.50
2022-08-17T02:48:31.584Z,98099.69
2022-08-17T02:51:00.149Z,98103.84
2022-08-17T02:53:27.446Z,98109.34
2022-08-17T02:56:00.292Z,98107.22
2022-08-17T02:58:35.535Z,98107.88
2022-08-17T03:01:06.312Z,98103.56
2022-08-17T03:03:33.604Z,98110.22
2022-08-17T03:06:00.818Z,98110.38
2022-08-17T03:08:27.518Z,98105.72
2022-08-17T03:10:54.312Z,98104.44
2022-08-17T03:13:21.139Z,98102.59
2022-08-17T03:15:48.472Z,98102.78
2022-08-17T03:18:25.082Z,98098.41
2022-08-17T03:20:57.695Z,98098.59
2022-08-17T03:23:26.363Z,98089.75
2022-08-17T03:25:55.186Z,98072.66
2022-08-17T03:28:23.625Z,98068.31
2022-08-17T03:30:51.352Z,98057.00
2022-08-17T03:33:19.054Z,98048.19
2022-08-17T03:35:46.177Z,98025.22
2022-08-17T03:38:15.253Z,97996.81
2022-08-17T03:40:56.569Z,97974.53
2022-08-17T03:43:28.061Z,97981.63
2022-08-17T03:46:28.810Z,97993.81
2022-08-17T03:49:18.841Z,97989.38
2022-08-17T03:52:04.031Z,98000.81
2022-08-17T03:54:49.427Z,98008.66
2022-08-17T03:57:16.709Z,98015.34
2022-08-17T03:59:46.042Z,98030.16
2022-08-17T04:02:25.732Z,98024.38
2022-08-17T04:04:52.684Z,98007.91
2022-08-17T04:07:22.015Z,98015.06
2022-08-17T04:09:51.521Z,98026.16
2022-08-17T04:12:20.399Z,98036.47
2022-08-17T04:14:53.540Z,98032.34
2022-08-17T04:17:27.530Z,98014.38
2022-08-17T04:19:55.098Z,98031.88
2022-08-17T04:22:30.803Z,98031.69
2022-08-17T04:25:16.121Z,98013.72
2022-08-17T04:27:42.939Z,98005.25
2022-08-17T04:30:10.284Z,98018.72
2022-08-17T04:33:06.259Z,98014.91
2022-08-17T04:35:40.307Z,98018.25
2022-08-17T04:38:09.044Z,98021.72
2022-08-17T04:40:54.732Z,98030.38
2022-08-17T04:43:24.050Z,98021.72
2022-08-17T04:45:57.145Z,98021.72
2022-08-17T04:48:28.137Z,98020.72
2022-08-17T04:51:09.841Z,98023.91
2022-08-17T04:53:38.096Z,98019.72
2022-08-17T04:56:05.410Z,98022.38
2022-08-17T04:58:32.127Z,98013.41
2022-08-17T05:01:01.772Z,98018.59
2022-08-17T05:03:28.761Z,98024.25
2022-08-17T05:05:55.540Z,98013.94
2022-08-17T05:08:22.408Z,98010.75
2022-08-17T05:10:49.765Z,98009.94
2022-08-17T05:13:19.749Z,98011.13
2022-08-17T05:15:48.677Z,98007.13
2022-08-17T05:18:16.722Z,98008.13
2022-08-17T05:20:43.739Z,98000.16
2022-08-17T05:23:17.518Z,97995.34
2022-08-17T05:25:47.772Z,97999.19
2022-08-17T05:28:19.732Z,98008.00
2022-08-17T05:30:52.076Z,98015.69
2022-08-17T05:33:21.519Z,98013.34
2022-08-17T05:35:52.120Z,98018.88
2022-08-17T05:38:22.592Z,98019.88
2022-08-17T05:40:49.545Z,98020.91
2022-08-17T05:43:22.627Z,98032.91
2022-08-17T05:45:56.465Z,98039.59
2022-08-17T05:48:35.562Z,98033.91
2022-08-17T05:51:23.777Z,98033.44
2022-08-17T05:54:12.019Z,98036.94
2022-08-17T05:56:41.570Z,98045.94
2022-08-17T05:59:35.211Z,98055.78
2022-08-17T06:02:43.067Z,98052.13
2022-08-17T06:05:51.666Z,98060.09
2022-08-17T06:08:34.056Z,98057.63
2022-08-17T06:11:30.169Z,98063.13
2022-08-17T06:14:29.738Z,98067.25
2022-08-17T06:17:03.316Z,98059.78
2022-08-17T06:20:10.571Z,98043.94
2022-08-17T06:22:44.610Z,98039.09
2022-08-17T06:25:23.564Z,98039.59
2022-08-17T06:27:56.105Z,98037.25
2022-08-17T06:30:27.053Z,98035.75
2022-08-17T06:32:59.588Z,98040.25
2022-08-17T06:35:56.050Z,98034.41
2022-08-17T06:39:00.055Z,98046.91
2022-08-17T06:41:40.068Z,98040.72
2022-08-17T06:44:44.766Z,98038.56
2022-08-17T06:47:28.908Z,98041.47
2022-08-17T06:50:09.052Z,98062.72
2022-08-17T06:52:50.011Z,98060.63
2022-08-17T06:55:21.419Z,98050.59
2022-08-17T06:57:52.638Z,98044.28
2022-08-17T07:00:23.911Z,98042.91
2022-08-17T07:03:03.057Z,98044.41
2022-08-17T07:05:38.780Z,98047.41
2022-08-17T07:08:16.737Z,98054.41
2022-08-17T07:10:48.086Z,98056.28
2022-08-17T07:13:29.464Z,98061.91
2022-08-17T07:16:04.763Z,98061.47
2022-08-17T07:18:33.292Z,98051.44
2022-08-17T07:21:26.207Z,98056.31
2022-08-17T07:24:49.246Z,98057.09
2022-08-17T07:27:21.420Z,98060.22
2022-08-17T07:29:54.804Z,98063.56
2022-08-17T07:32:35.196Z,98073.94
2022-08-17T07:35:10.705Z,98082.59
2022-08-17T07:37:43.608Z,98077.69
2022-08-17T07:40:27.162Z,98066.69
2022-08-17T07:43:18.777Z,98070.78
2022-08-17T07:46:33.812Z,98077.25
2022-08-17T07:49:09.119Z,98084.72
2022-08-17T07:51:43.291Z,98089.53
2022-08-17T07:54:16.097Z,98086.03
2022-08-17T07:56:52.729Z,98085.84
2022-08-17T07:59:33.713Z,98085.69
2022-08-17T08:02:02.365Z,98097.16
2022-08-17T08:05:00.250Z,98101.38
2022-08-17T08:07:37.420Z,98104.41
2022-08-17T08:10:16.949Z,98110.78
2022-08-17T08:12:47.391Z,98105.44
2022-08-17T08:15:33.349Z,98103.75
2022-08-17T08:18:03.924Z,98110.56
2022-08-17T08:20:54.013Z,98108.38
2022-08-17T08:23:39.588Z,98116.38
2022-08-17T08:26:26.009Z,98130.44
2022-08-17T08:29:00.455Z,98138.00
2022-08-17T08:31:56.453Z,98142.66
2022-08-17T08:35:01.452Z,98143.53
2022-08-17T08:38:10.744Z,98139.09
2022-08-17T08:41:03.558Z,98154.91
2022-08-17T08:44:06.624Z,98161.16
2022-08-17T08:46:48.341Z,98179.19
2022-08-17T08:50:01.802Z,98173.50
2022-08-17T08:52:34.108Z,98169.97
2022-08-17T08:55:18.827Z,98174.88
2022-08-17T08:58:00.139Z,98164.00
2022-08-17T09:00:27.657Z,98159.72
2022-08-17T09:03:06.250Z,98160.28
2022-08-17T09:06:33.592Z,98147.41
2022-08-17T09:09:34.257Z,98159.34
2022-08-17T09:12:14.033Z,98168.00
2022-08-17T09:14:49.424Z,98159.75
2022-08-17T09:17:31.603Z,98170.63
2022-08-17T09:20:06.017Z,98161.13
2022-08-17T09:22:44.668Z,98168.53
2022-08-17T09:25:13.957Z,98169.03
2022-08-17T09:28:14.307Z,98158.03
2022-08-17T09:30:51.877Z,98164.53
2022-08-17T09:33:27.774Z,98170.03
2022-08-17T09:36:00.075Z,98164.78
2022-08-17T09:38:54.651Z,98167.94
2022-08-17T09:41:26.701Z,98161.94
2022-08-17T09:44:23.929Z,98161.16
2022-08-17T09:47:00.406Z,98146.63
2022-08-17T09:49:35.366Z,98139.03
2022-08-17T09:52:21.565Z,98128.50
2022-08-17T09:54:51.441Z,98125.31
2022-08-17T09:57:59.019Z,98111.69
2022-08-17T10:00:33.609Z,98101.09
2022-08-17T10:03:19.828Z,98110.59
2022-08-17T10:05:59.455Z,98126.78
2022-08-17T10:09:06.516Z,98128.06
2022-08-17T10:11:54.457Z,98129.78
2022-08-17T10:14:53.203Z,98142.19
2022-08-17T10:17:43.827Z,98147.53
2022-08-17T10:20:30.186Z,98155.75
2022-08-17T10:23:24.101Z,98149.94
2022-08-17T10:26:04.861Z,98161.72
2022-08-17T10:28:44.280Z,98162.13
2022-08-17T10:31:34.434Z,98167.34
2022-08-17T10:34:23.343Z,98171.63
2022-08-17T10:37:09.994Z,98178.22
2022-08-17T10:39:52.975Z,98174.34
2022-08-17T10:42:43.846Z,98171.09
2022-08-17T10:45:18.301Z,98164.91
2022-08-17T10:48:08.472Z,98165.78
2022-08-17T10:50:44.022Z,98160.47
2022-08-17T10:53:10.726Z,98161.78
2022-08-17T10:55:39.122Z,98165.09
2022-08-17T10:58:37.611Z,98151.97
2022-08-17T11:01:04.565Z,98147.47
2022-08-17T11:03:32.871Z,98146.75
2022-08-17T11:06:14.158Z,98158.31
2022-08-17T11:09:02.687Z,98159.84
2022-08-17T11:11:35.984Z,98165.56
2022-08-17T11:14:33.965Z,98176.19
2022-08-17T11:17:09.479Z,98167.25
2022-08-17T11:19:48.615Z,98154.75
2022-08-17T11:22:39.607Z,98166.72
2022-08-17T11:25:15.500Z,98164.19
2022-08-17T11:27:44.001Z,98156.38
2022-08-17T11:30:35.911Z,98155.13
2022-08-17T11:33:36.647Z,98148.44
2022-08-17T11:36:25.714Z,98146.47
2022-08-17T11:39:19.255Z,98151.00
2022-08-17T11:42:11.769Z,98152.66
2022-08-17T11:44:55.640Z,98144.31
2022-08-17T11:48:26.058Z,98142.63
2022-08-17T11:51:19.096Z,98158.28
2022-08-17T11:53:45.881Z,98150.78
2022-08-17T11:56:35.685Z,98153.97
2022-08-17T11:59:02.512Z,98146.28
2022-08-17T12:01:51.890Z,98150.09
2022-08-17T12:04:21.851Z,98159.47
2022-08-17T12:06:57.009Z,98152.22
2022-08-17T12:09:32.114Z,98135.66
2022-08-17T12:12:12.933Z,98142.09
2022-08-17T12:17:41.134Z,98140.13
2022-08-17T12:20:37.446Z,98127.84
2022-08-17T12:23:16.644Z,98130.00
2022-08-17T12:25:53.925Z,98129.38
2022-08-17T12:28:35.820Z,98125.16
2022-08-17T12:31:06.807Z,98129.19
2022-08-17T12:33:37.117Z,98127.53
2022-08-17T12:36:05.883Z,98133.56
2022-08-17T12:38:35.041Z,98132.19
2022-08-17T12:41:23.824Z,98130.41
2022-08-17T12:44:02.011Z,98126.41
2022-08-17T12:46:33.604Z,98114.13
2022-08-17T12:49:21.358Z,98116.69
2022-08-17T12:51:48.981Z,98130.63
2022-08-17T12:54:33.647Z,98124.03
2022-08-17T12:57:06.376Z,98113.84
2022-08-17T12:59:33.280Z,98110.63
2022-08-17T13:02:01.322Z,98104.81
2022-08-17T13:04:29.815Z,98108.28
2022-08-17T13:07:00.106Z,98109.00
2022-08-17T13:09:33.565Z,98108.16
2022-08-17T13:12:07.680Z,98105.91
2022-08-17T13:14:35.224Z,98108.25
2022-08-17T13:17:06.325Z,98100.13
2022-08-17T13:19:40.963Z,98102.69
2022-08-17T13:22:12.489Z,98107.06
2022-08-17T13:24:53.172Z,98106.47
2022-08-17T13:27:22.363Z,98096.09
2022-08-17T13:29:57.376Z,98093.69
2022-08-17T13:32:36.094Z,98092.78
2022-08-17T13:35:29.742Z,98075.56
2022-08-17T13:39:31.634Z,98074.59
2022-08-17T13:44:39.427Z,98069.13
2022-08-17T13:47:17.405Z,98075.91
2022-08-17T13:49:48.755Z,98070.13
2022-08-17T13:52:39.596Z,98072.50
2022-08-17T13:55:19.927Z,98077.81
2022-08-17T13:57:50.432Z,98077.00
2022-08-17T14:00:35.522Z,98065.06
2022-08-17T14:03:04.229Z,98055.19
2022-08-17T14:05:32.101Z,98064.06
2022-08-17T14:08:06.705Z,98065.44
2022-08-17T14:10:36.615Z,98070.41
2022-08-17T14:13:04.161Z,98065.56
2022-08-17T14:15:56.243Z,98066.50
2022-08-17T14:18:55.390Z,98055.53
2022-08-17T14:21:08.272Z,98053.81
2022-08-17T14:23:35.606Z,98054.81
2022-08-17T14:26:02.530Z,98050.59
2022-08-17T14:28:29.123Z,98040.09
2022-08-17T14:30:55.864Z,98053.56
2022-08-17T14:33:24.791Z,98056.78
2022-08-17T14:35:54.979Z,98045.44
2022-08-17T14:38:21.895Z,98052.78
2022-08-17T14:40:49.436Z,98051.97
2022-08-17T14:43:16.088Z,98048.56
2022-08-17T14:45:43.540Z,98052.25
2022-08-17T14:48:10.948Z,98042.25
2022-08-17T14:50:40.943Z,98038.38
2022-08-17T14:53:10.181Z,98037.41
2022-08-17T14:55:39.925Z,98033.59
2022-08-17T14:58:07.572Z,98026.59
2022-08-17T15:00:34.960Z,98030.72
2022-08-17T15:03:03.097Z,98029.81
2022-08-17T15:05:33.845Z,98029.44
2022-08-17T15:08:01.581Z,98030.50
2022-08-17T15:10:29.333Z,98044.50
2022-08-17T15:12:56.527Z,98040.41
2022-08-17T15:15:23.907Z,98039.56
2022-08-17T15:17:51.660Z,98046.00
2022-08-17T15:20:25.117Z,98053.94
2022-08-17T15:22:55.615Z,98053.25
2022-08-17T15:25:23.730Z,98059.59
2022-08-17T15:27:50.978Z,98061.69
2022-08-17T15:30:17.754Z,98063.81
2022-08-17T15:32:51.105Z,98053.44
2022-08-17T15:35:27.123Z,98050.25
2022-08-17T15:37:54.483Z,98049.75
2022-08-17T15:40:21.329Z,98061.91
2022-08-17T15:42:48.048Z,98063.81
2022-08-17T15:45:16.552Z,98051.81
2022-08-17T15:47:43.364Z,98055.00
2022-08-17T15:50:10.625Z,98043.81
2022-08-17T15:52:40.284Z,98048.72
2022-08-17T15:55:11.054Z,98032.88
2022-08-17T15:57:37.748Z,98036.94
2022-08-17T16:00:07.605Z,98031.59
2022-08-17T16:03:45.302Z,98028.78
2022-08-17T16:05:25.264Z,98027.44
2022-08-17T16:07:53.002Z,98030.03
2022-08-17T16:10:21.171Z,98036.66
2022-08-17T16:12:50.092Z,98043.34
2022-08-17T16:15:18.136Z,98044.66
2022-08-17T16:17:44.773Z,98049.28
2022-08-17T16:20:20.195Z,98049.41
2022-08-17T16:22:49.727Z,98050.59
2022-08-17T16:25:38.395Z,98060.72
2022-08-17T16:28:15.923Z,98062.63
2022-08-17T16:30:42.829Z,98055.78
2022-08-17T16:33:11.693Z,98042.66
2022-08-17T16:35:39.217Z,98052.59
2022-08-17T16:38:07.279Z,98048.78
2022-08-17T16:40:36.086Z,98054.19
2022-08-17T16:43:03.991Z,98062.19
2022-08-17T16:45:40.535Z,98047.94
2022-08-17T16:48:11.911Z,98046.88
2022-08-17T16:50:38.918Z,98049.59
2022-08-17T16:53:08.019Z,98046.88
2022-08-17T16:55:35.814Z,98051.88
2022-08-17T16:58:08.767Z,98050.34
2022-08-17T17:00:36.682Z,98039.97
2022-08-17T17:03:20.270Z,98038.41
2022-08-17T17:05:59.429Z,98046.88
2022-08-17T17:08:30.362Z,98048.78
2022-08-17T17:10:59.522Z,98047.72
2022-08-17T17:13:35.473Z,98043.47
2022-08-17T17:16:05.102Z,98045.34
2022-08-17T17:18:43.501Z,98041.19
2022-08-17T17:21:14.438Z,98046.38
2022-08-17T17:23:54.912Z,98045.41
2022-08-17T17:26:40.275Z,98040.13
2022-08-17T17:29:24.471Z,98047.72
2022-08-17T17:32:05.686Z,98044.41
2022-08-17T17:34:34.861Z,98036.22
2022-08-17T17:37:08.658Z,98033.97
2022-08-17T17:39:49.772Z,98032.16
2022-08-17T17:42:20.715Z,98025.34
2022-08-17T17:44:54.893Z,98028.81
2022-08-17T17:47:21.666Z,98022.22
2022-08-17T17:49:51.314Z,98014.97
2022-08-17T17:52:41.097Z,98022.59
2022-08-17T17:55:07.732Z,98026.03
2022-08-17T17:57:58.144Z,98023.41
2022-08-17T18:00:40.235Z,98024.53
2022-08-17T18:03:24.667Z,98027.91
2022-08-17T18:06:03.470Z,98027.50
2022-08-17T18:09:17.946Z,98035.69
2022-08-17T18:12:13.517Z,98040.81
2022-08-17T18:15:21.527Z,98052.53
2022-08-17T18:18:17.210Z,98060.38
2022-08-17T18:20:53.639Z,98065.00
2022-08-17T18:23:27.767Z,98065.25
2022-08-17T18:25:55.645Z,98067.44
2022-08-17T18:28:29.809Z,98071.66
2022-08-17T18:31:22.888Z,98078.16
2022-08-17T18:33:52.421Z,98084.44
2022-08-17T18:36:31.447Z,98084.94
2022-08-17T18:39:25.188Z,98086.22
2022-08-17T18:41:54.579Z,98083.59
2022-08-17T18:44:41.379Z,98090.06
2022-08-17T18:47:13.487Z,98083.81
2022-08-17T18:49:42.175Z,98086.50
2022-08-17T18:52:11.793Z,98095.03
2022-08-17T18:54:38.686Z,98095.69
2022-08-17T18:57:07.614Z,98110.59
2022-08-17T18:59:48.318Z,98112.31
2022-08-17T19:05:26.486Z,98129.44
2022-08-17T19:07:53.977Z,98129.84
2022-08-17T19:10:32.173Z,98133.56
2022-08-17T19:13:36.974Z,98136.47
2022-08-17T19:16:12.103Z,98138.09
2022-08-17T19:19:05.928Z,98145.31
2022-08-17T19:21:47.934Z,98145.28
2022-08-17T19:24:22.027Z,98149.84
2022-08-17T19:26:58.754Z,98145.47
2022-08-17T19:29:34.396Z,98154.34
2022-08-17T19:32:01.950Z,98148.28
2022-08-17T19:34:33.755Z,98158.56
2022-08-17T19:37:03.776Z,98159.16
2022-08-17T19:39:55.304Z,98168.84
2022-08-17T19:42:40.543Z,98165.94
2022-08-17T19:45:14.616Z,98169.41
2022-08-17T19:48:09.400Z,98164.59
2022-08-17T19:51:06.955Z,98162.69
2022-08-17T19:54:06.031Z,98174.81
2022-08-17T19:56:36.560Z,98168.38
2022-08-17T19:59:23.429Z,98162.56
2022-08-17T20:02:28.810Z,98155.69
2022-08-17T20:05:00.188Z,98163.50
2022-08-17T20:07:38.555Z,98163.25
2022-08-17T20:10:11.373Z,98174.41
2022-08-17T20:12:40.234Z,98177.84
2022-08-17T20:15:22.903Z,98179.25
2022-08-17T20:17:50.594Z,98174.78
2022-08-17T20:20:43.684Z,98172.94
2022-08-17T20:23:28.746Z,98179.06
2022-08-17T20:26:26.981Z,98181.09
2022-08-17T20:29:15.152Z,98178.19
2022-08-17T20:31:46.666Z,98164.28
2022-08-17T20:34:39.883Z,98159.31
2022-08-17T20:37:12.662Z,98160.09
2022-08-17T20:39:45.978Z,98158.53
2022-08-17T20:42:15.603Z,98165.31
2022-08-17T20:44:43.224Z,98164.00
2022-08-17T20:47:26.940Z,98181.31
2022-08-17T20:50:14.107Z,98175.47
2022-08-17T20:52:55.077Z,98182.06
2022-08-17T20:55:51.770Z,98184.94
2022-08-17T20:58:30.891Z,98183.84
2022-08-17T21:00:58.683Z,98188.94
2022-08-17T21:03:26.786Z,98187.44
2022-08-17T21:06:14.423Z,98186.00
2022-08-17T21:08:59.039Z,98190.69
2022-08-17T21:12:02.430Z,98191.06
2022-08-17T21:14:33.681Z,98204.38
2022-08-17T21:17:17.725Z,98202.84
2022-08-17T21:20:11.497Z,98204.97
2022-08-17T21:22:51.427Z,98200.44
2022-08-17T21:25:50.407Z,98199.97
2022-08-17T21:29:00.604Z,98199.97
2022-08-17T21:31:34.188Z,98205.72
2022-08-17T21:34:16.703Z,98208.75
2022-08-17T21:36:45.134Z,98207.44
2022-08-17T21:39:14.256Z,98208.66
2022-08-17T21:41:52.802Z,98207.38
2022-08-17T21:44:27.811Z,98213.88
2022-08-17T21:47:13.428Z,98209.44
2022-08-17T21:49:40.176Z,98212.66
2022-08-17T21:52:07.746Z,98213.94
2022-08-17T21:54:42.558Z,98213.09
2022-08-17T21:57:17.247Z,98215.13
2022-08-17T21:59:44.669Z,98204.97
2022-08-17T22:02:28.384Z,98198.88
2022-08-17T22:04:59.416Z,98198.19
2022-08-17T22:07:40.388Z,98202.06
2022-08-17T22:10:08.857Z,98205.19
2022-08-17T22:12:35.486Z,98204.88
2022-08-17T22:15:06.119Z,98203.59
2022-08-17T22:17:36.054Z,98213.34
2022-08-17T22:20:05.781Z,98213.16
2022-08-17T22:22:35.321Z,98206.16
2022-08-17T22:25:06.687Z,98198.66
2022-08-17T22:28:10.799Z,98191.44
2022-08-17T22:30:41.991Z,98198.47
2022-08-17T22:33:36.991Z,98204.34
2022-08-17T22:36:19.641Z,98207.91
2022-08-17T22:38:50.015Z,98219.25
2022-08-17T22:41:22.687Z,98213.41
2022-08-17T22:43:50.642Z,98220.13
2022-08-17T22:46:22.513Z,98226.16
2022-08-17T22:48:53.886Z,98225.50
2022-08-17T22:51:23.937Z,98227.16
2022-08-17T22:54:19.276Z,98224.66
2022-08-17T22:57:19.075Z,98235.53
2022-08-17T22:59:54.860Z,98232.72
2022-08-17T23:02:33.114Z,98239.59
2022-08-17T23:05:10.132Z,98244.75
2022-08-17T23:07:37.158Z,98250.75
2022-08-17T23:10:06.458Z,98254.09
2022-08-17T23:12:38.914Z,98255.09
2022-08-17T23:15:17.005Z,98254.28
2022-08-17T23:17:45.307Z,98258.31
2022-08-17T23:20:14.051Z,98258.31
2022-08-17T23:22:52.102Z,98268.34
2022-08-17T23:25:28.829Z,98260.84
2022-08-17T23:27:57.607Z,98262.88
2022-08-17T23:30:25.696Z,98260.53
2022-08-17T23:32:54.377Z,98253.34
2022-08-17T23:35:38.853Z,98248.72
2022-08-17T23:38:08.149Z,98250.69
2022-08-17T23:40:34.875Z,98241.19
2022-08-17T23:43:04.543Z,98248.72
2022-08-17T23:45:36.695Z,98244.25
2022-08-17T23:48:04.886Z,98242.75
2022-08-17T23:50:31.754Z,98252.53
2022-08-17T23:52:59.337Z,98256.38
2022-08-17T23:55:25.992Z,98249.38
2022-08-17T23:57:52.769Z,98250.03
